| time (UTC) | temp C | wind direction | speed KPH | gust KPH | rain 1hr cm | rain 24hr cm | rain mn cm | humidity % | barometer mb |
| 20260509150048 | 27 | 221 | 3.2 | 12.9 | 0.00 | 0.00 | 0.00 | 74 | 1009.1 |
| 20260509144540 | 27 | 210 | 6.4 | 17.7 | 0.00 | 0.00 | 0.00 | 76 | 1008.8 |
| 20260509143037 | 26 | 178 | 3.2 | 14.5 | 0.00 | 0.00 | 0.00 | 81 | 1008.5 |
| 20260509141531 | 25 | 148 | 4.8 | 16.1 | 0.00 | 0.00 | 0.00 | 84 | 1008.4 |
| 20260509140026 | 24 | 131 | 3.2 | 11.3 | 0.00 | 0.00 | 0.00 | 89 | 1008.6 |
| 20260509134521 | 23 | 209 | 1.6 | 12.9 | 0.00 | 0.00 | 0.00 | 93 | 1008.9 |
| 20260509133017 | 22 | 126 | 1.6 | 6.4 | 0.00 | 0.00 | 0.00 | 95 | 1008.6 |
| 20260509131513 | 22 | 155 | 1.6 | 8.0 | 0.00 | 0.00 | 0.00 | 95 | 1008.3 |
| 20260509130034 | 21 | 220 | 1.6 | 4.8 | 0.00 | 0.00 | 0.00 | 95 | 1008.5 |
| 20260509124526 | 21 | 159 | 0.0 | 4.8 | 0.00 | 0.00 | 0.00 | 95 | 1008.6 |
| 20260509123011 | 21 | 246 | 3.2 | 8.0 | 0.00 | 0.00 | 0.00 | 95 | 1008.7 |
| 20260509121508 | 21 | 296 | 0.0 | 3.2 | 0.00 | 0.00 | 0.00 | 95 | 1009.2 |
| 20260509120013 | 21 | 129 | 0.0 | 0.0 | 0.00 | 0.00 | 0.00 | 95 | 1009.2 |
| 20260509114505 | 21 | 227 | 0.0 | 0.0 | 0.00 | 0.00 | 0.00 | 95 | 1009.5 |
| 20260509113005 | 21 | 323 | 0.0 | 0.0 | 0.00 | 0.00 | 0.00 | 95 | 1010.1 |
| 20260509111504 | 21 | 323 | 0.0 | 0.0 | 0.00 | 0.00 | 0.00 | 95 | 1010.2 |
| 20260509110004 | 21 | 323 | 0.0 | 0.0 | 0.00 | 0.00 | 0.00 | 95 | 1010.4 |
| 20260509104505 | 21 | 323 | 0.0 | 0.0 | 0.00 | 0.00 | 0.00 | 95 | 1010.6 |
| 20260509103001 | 21 | 360 | 0.0 | 0.0 | 0.00 | 0.00 | 0.00 | 94 | 1010.7 |
| 20260509101658 | 21 | 291 | 0.0 | 0.0 | 0.00 | 0.00 | 0.00 | 94 | 1010.4 |
| 20260509100056 | 21 | 291 | 0.0 | 3.2 | 0.00 | 0.00 | 0.00 | 94 | 1010.2 |
| 20260509094601 | 21 | 36 | 0.0 | 0.0 | 0.00 | 0.05 | 0.00 | 94 | 1009.8 |
| 20260509093058 | 21 | 311 | 0.0 | 0.0 | 0.00 | 0.05 | 0.00 | 94 | 1009.8 |
| 20260509091557 | 21 | 164 | 0.0 | 0.0 | 0.00 | 0.05 | 0.00 | 94 | 1009.0 |
| 20260509090057 | 21 | 164 | 0.0 | 0.0 | 0.00 | 0.05 | 0.00 | 93 | 1008.9 |
| 20260509084602 | 21 | 164 | 0.0 | 0.0 | 0.00 | 0.05 | 0.00 | 93 | 1009.0 |
| 20260509083052 | 22 | 164 | 0.0 | 0.0 | 0.00 | 0.05 | 0.00 | 92 | 1009.4 |
| 20260509081557 | 22 | 164 | 0.0 | 0.0 | 0.00 | 0.05 | 0.00 | 93 | 1009.3 |
| 20260509080057 | 22 | 164 | 0.0 | 0.0 | 0.00 | 0.05 | 0.00 | 92 | 1009.4 |
| 20260509074547 | 22 | 164 | 0.0 | 0.0 | 0.00 | 0.05 | 0.00 | 93 | 1009.8 |
| 20260509073046 | 22 | 164 | 0.0 | 0.0 | 0.00 | 0.05 | 0.00 | 93 | 1009.8 |
| 20260509071538 | 22 | 164 | 0.0 | 0.0 | 0.00 | 0.05 | 0.00 | 93 | 1010.1 |
| 20260509070033 | 22 | 187 | 0.0 | 0.0 | 0.00 | 0.05 | 0.00 | 93 | 1009.8 |
| 20260509064529 | 22 | 170 | 0.0 | 0.0 | 0.00 | 0.05 | 0.00 | 93 | 1009.9 |
| 20260509063033 | 22 | 150 | 0.0 | 4.8 | 0.00 | 0.05 | 0.00 | 93 | 1009.9 |
| 20260509061522 | 22 | 165 | 1.6 | 4.8 | 0.00 | 0.05 | 0.00 | 93 | 1009.8 |
| 20260509060017 | 22 | 111 | 3.2 | 4.8 | 0.00 | 0.05 | 0.00 | 93 | 1010.0 |
| 20260509054512 | 22 | 101 | 0.0 | 4.8 | 0.00 | 0.05 | 0.00 | 92 | 1009.6 |
| 20260509053012 | 22 | 119 | 1.6 | 4.8 | 0.00 | 0.05 | 0.00 | 92 | 1008.8 |
| 20260509051506 | 21 | 99 | 0.0 | 3.2 | 0.00 | 0.05 | 0.00 | 92 | 1008.6 |
| 20260509050100 | 22 | 65 | 1.6 | 4.8 | 0.00 | 0.05 | 0.00 | 91 | 1008.4 |
| 20260509050003 | 22 | 87 | 0.0 | 3.2 | 0.00 | 0.05 | 0.00 | 91 | 1008.4 |
| 20260509044616 | 22 | 118 | 0.0 | 4.8 | 0.00 | 0.05 | 0.05 | 91 | 1008.4 |
| 20260509043058 | 22 | 119 | 1.6 | 3.2 | 0.00 | 0.05 | 0.05 | 91 | 1008.8 |
| 20260509041559 | 22 | 144 | 0.0 | 3.2 | 0.00 | 0.05 | 0.05 | 91 | 1009.0 |
| 20260509040057 | 21 | 135 | 0.0 | 0.0 | 0.00 | 0.05 | 0.05 | 91 | 1008.9 |
| 20260509034557 | 21 | 119 | 0.0 | 0.0 | 0.00 | 0.05 | 0.05 | 91 | 1009.0 |
| 20260509033057 | 21 | 119 | 0.0 | 0.0 | 0.00 | 0.05 | 0.05 | 91 | 1008.8 |
| 20260509031608 | 21 | 119 | 0.0 | 1.6 | 0.00 | 0.05 | 0.05 | 90 | 1008.7 |
| 20260509030057 | 22 | 117 | 0.0 | 4.8 | 0.00 | 0.05 | 0.05 | 90 | 1008.4 |
| 20260509024557 | 22 | 144 | 1.6 | 6.4 | 0.00 | 0.05 | 0.05 | 89 | 1008.3 |
| 20260509023106 | 22 | 125 | 1.6 | 6.4 | 0.00 | 0.05 | 0.05 | 89 | 1008.2 |
| 20260509021554 | 22 | 90 | 0.0 | 4.8 | 0.00 | 0.05 | 0.05 | 88 | 1008.2 |
| 20260509020054 | 22 | 123 | 0.0 | 4.8 | 0.00 | 0.05 | 0.05 | 87 | 1008.0 |
| 20260509014552 | 22 | 124 | 0.0 | 4.8 | 0.00 | 0.05 | 0.05 | 87 | 1007.8 |
| 20260509013052 | 23 | 86 | 0.0 | 6.4 | 0.00 | 0.05 | 0.05 | 86 | 1007.7 |
| 20260509011552 | 23 | 28 | 0.0 | 6.4 | 0.00 | 0.05 | 0.05 | 85 | 1007.7 |
| 20260509010052 | 23 | 131 | 4.8 | 12.9 | 0.00 | 0.05 | 0.05 | 85 | 1007.6 |
| 20260509004553 | 23 | 86 | 1.6 | 8.0 | 0.00 | 0.05 | 0.05 | 84 | 1007.7 |
| 20260509003050 | 23 | 88 | 1.6 | 9.7 | 0.00 | 0.05 | 0.05 | 83 | 1007.7 |
| 20260509001547 | 23 | 86 | 1.6 | 11.3 | 0.00 | 0.05 | 0.05 | 83 | 1007.7 |
| 20260509000047 | 23 | 98 | 1.6 | 8.0 | 0.00 | 0.05 | 0.05 | 83 | 1007.8 |
| 20260508234550 | 24 | 76 | 0.0 | 6.4 | 0.00 | 0.05 | 0.05 | 82 | 1007.9 |
| 20260508233050 | 24 | 54 | 1.6 | 8.0 | 0.00 | 0.05 | 0.05 | 81 | 1007.9 |
| 20260508231544 | 24 | 130 | 4.8 | 11.3 | 0.00 | 0.05 | 0.05 | 80 | 1007.8 |
| 20260508230107 | 25 | 40 | 1.6 | 8.0 | 0.00 | 0.05 | 0.05 | 79 | 1007.8 |
| 20260508224549 | 25 | 81 | 4.8 | 12.9 | 0.00 | 0.05 | 0.05 | 79 | 1007.8 |
| 20260508223041 | 25 | 136 | 4.8 | 12.9 | 0.00 | 0.05 | 0.05 | 78 | 1007.9 |
| 20260508221540 | 25 | 120 | 3.2 | 12.9 | 0.00 | 0.05 | 0.05 | 77 | 1007.9 |
| 20260508220108 | 25 | 108 | 3.2 | 11.3 | 0.00 | 0.05 | 0.05 | 76 | 1008.1 |
| 20260508214538 | 25 | 96 | 4.8 | 11.3 | 0.00 | 0.05 | 0.05 | 75 | 1008.3 |
| 20260508213037 | 25 | 107 | 4.8 | 12.9 | 0.00 | 0.05 | 0.05 | 75 | 1008.2 |
| 20260508211540 | 25 | 145 | 4.8 | 14.5 | 0.00 | 0.05 | 0.05 | 76 | 1008.5 |
| 20260508210033 | 25 | 39 | 3.2 | 11.3 | 0.00 | 0.05 | 0.05 | 77 | 1008.8 |
| 20260508204528 | 24 | 52 | 3.2 | 14.5 | 0.00 | 0.05 | 0.05 | 76 | 1009.1 |
| 20260508203023 | 24 | 5 | 1.6 | 14.5 | 0.00 | 0.05 | 0.05 | 77 | 1009.4 |
| 20260508201531 | 24 | 137 | 6.4 | 16.1 | 0.00 | 0.05 | 0.05 | 75 | 1009.6 |
| 20260508200018 | 24 | 97 | 4.8 | 12.9 | 0.00 | 0.05 | 0.05 | 77 | 1009.7 |
| 20260508194514 | 23 | 123 | 1.6 | 9.7 | 0.00 | 0.05 | 0.05 | 78 | 1009.9 |
| 20260508193010 | 23 | 11 | 3.2 | 12.9 | 0.00 | 0.05 | 0.05 | 76 | 1010.2 |
| 20260508191515 | 23 | 5 | 3.2 | 14.5 | 0.00 | 0.05 | 0.05 | 77 | 1010.2 |
| 20260508190004 | 23 | 99 | 3.2 | 11.3 | 0.00 | 0.05 | 0.05 | 78 | 1010.4 |
| 20260508184601 | 22 | 9 | 3.2 | 6.4 | 0.00 | 0.05 | 0.05 | 78 | 1010.7 |
| 20260508184500 | 22 | 5 | 3.2 | 6.4 | 0.00 | 0.05 | 0.05 | 79 | 1010.7 |
| 20260508183059 | 22 | 74 | 1.6 | 6.4 | 0.00 | 0.05 | 0.05 | 80 | 1010.9 |
| 20260508181607 | 22 | 36 | 1.6 | 6.4 | 0.00 | 0.05 | 0.05 | 80 | 1011.1 |
| 20260508180104 | 22 | 118 | 3.2 | 8.0 | 0.00 | 0.05 | 0.05 | 79 | 1011.2 |
| 20260508174602 | 21 | 321 | 1.6 | 8.0 | 0.00 | 0.05 | 0.05 | 79 | 1011.3 |
| 20260508173046 | 21 | 327 | 3.2 | 9.7 | 0.00 | 0.05 | 0.05 | 81 | 1011.4 |
| 20260508171543 | 21 | 126 | 1.6 | 8.0 | 0.00 | 0.05 | 0.05 | 81 | 1011.7 |
| 20260508170039 | 20 | 46 | 0.0 | 4.8 | 0.00 | 0.05 | 0.05 | 82 | 1012.1 |
| 20260508164536 | 20 | 104 | 0.0 | 3.2 | 0.00 | 0.05 | 0.05 | 82 | 1012.4 |
| 20260508163038 | 19 | 84 | 0.0 | 3.2 | 0.00 | 0.05 | 0.05 | 83 | 1012.4 |
| 20260508161535 | 19 | 144 | 0.0 | 3.2 | 0.00 | 0.05 | 0.05 | 82 | 1012.6 |
| 20260508160031 | 19 | 117 | 1.6 | 6.4 | 0.00 | 0.05 | 0.05 | 82 | 1012.7 |
| 20260508154529 | 19 | 130 | 1.6 | 4.8 | 0.00 | 0.05 | 0.05 | 83 | 1012.9 |
| 20260508153027 | 18 | 159 | 0.0 | 6.4 | 0.00 | 0.05 | 0.05 | 84 | 1012.9 |
| 20260508151527 | 18 | 115 | 3.2 | 6.4 | 0.00 | 0.05 | 0.05 | 84 | 1012.8 |